メインページ
METAR-TAF:

METAR-TAF

空港 :

トルマチョーヴォ空港

ノヴォシビルスク, ロシア

緯度: 55-01N, 経度: 082-38E, 海抜: 111m

現時点の気象観測

当レポートは27分前の14:00(UTC)に作成
北/北西の風 4kt
気温 20°C
湿度 78%
気圧 1011 hPa
視程10km以上
高度2600ftの雲は散在している

METAR: UNNT 201400Z 34002MPS 9999 SCT026 20/16 Q1011 R07/090070 R34/090070 NOSIG RMK QFE748/0998

時間: 21:27 (14:27 UTC)

予報

当レポートは3時間27分前の11:00(UTC)に作成
予報は20日の 12時(UTC)から 21日の 12時(UTC)まで有効
北/北東の風 6kt、最大19ktの突風を伴う
視程10km以上
高度2000ftの千切れ雲あり, 積乱雲.
20日の 12時(UTC)から 20日の 19時(UTC)まで一時的に
の風 16kt、最大29ktの突風を伴う
視程: 3100m
高度1100ftの千切れ雲あり, 積乱雲.
激しい雷雨, 小雨, 雹
20日の 19時(UTC)から 21日の 01時(UTC)まで一時的に
視程: 1500m
高度1100ftの千切れ雲あり, 積乱雲.
靄, 煙

TAF: UNNT 201100Z 2012/2112 03003G10MPS 9999 BKN020CB TEMPO 2012/2019 35008G15MPS 3100 -TSRAGR BKN011CB TEMPO 2019/2101 1500 BR FU BKN011CB

4,000以上の空港の気象観測と天気予報(METAR報とTAF報)

利用可能な観測所は地図上に黄色い丸と赤い丸で示す。

丸の上にカーソルを重ねると観測所名を参照できる。

次にクリックすると気象観測と天気予報を参照できる。

マップの切り替え:黒色「×」印の緑ボタンをクリックして拡大、「-」印の緑ボタンをクリックして縮小、緑色の三角印をクリックして隣りの地図に切り替え


METAR-TAF: